Antelope, Texas
Current Conditions -  °F | °C
As of 2:50 AM on Monday 20 Oct 2014 (Local Time) from KRPH Reporting Station
Clear Clear  
Wind Chill: 62°   Ceiling: Unl
Heat Index: 62°   Visibility: 10mi
Dew Point: 59°   Wind: 0mph
Humidity: 90%   Direction: NA
Pressure: 30.04"   Gusts: NA
Location:  33.4259°N, 98.383°W
Report Text: KRPH 200750Z AUTO 00000KT 10SM CLR 17/15 A3004 RMK AO2 T01680151
Loading
Personal Weather Stations






























Interactive Weather Map
Tropical Storm Tracking
New forecast layout! Learn more

10-Day Weather Forecast

Advertisements
Track Severe Weather on mobile